createdAt,value
2022-09-15T00:01:52.151Z,6.78
2022-09-15T00:04:18.555Z,6.18
2022-09-15T00:06:46.246Z,6.05
2022-09-15T00:09:12.594Z,7.28
2022-09-15T00:11:39.040Z,6.80
2022-09-15T00:14:06.874Z,7.47
2022-09-15T00:16:34.205Z,7.07
2022-09-15T00:19:01.095Z,8.45
2022-09-15T00:21:29.932Z,8.60
2022-09-15T00:23:58.974Z,7.75
2022-09-15T00:26:27.320Z,8.23
2022-09-15T00:28:54.526Z,7.55
2022-09-15T00:31:23.556Z,7.78
2022-09-15T00:33:51.930Z,8.20
2022-09-15T00:36:19.876Z,7.95
2022-09-15T00:38:46.865Z,7.45
2022-09-15T00:41:17.392Z,7.85
2022-09-15T00:43:51.089Z,7.30
2022-09-15T00:46:19.673Z,8.05
2022-09-15T00:48:50.840Z,7.80
2022-09-15T00:51:22.558Z,8.07
2022-09-15T00:53:49.603Z,8.25
2022-09-15T00:56:18.311Z,8.80
2022-09-15T00:58:48.885Z,8.43
2022-09-15T01:01:16.487Z,7.65
2022-09-15T01:03:43.542Z,7.60
2022-09-15T01:06:14.052Z,7.45
2022-09-15T01:08:44.344Z,6.93
2022-09-15T01:11:10.903Z,7.32
2022-09-15T01:13:38.560Z,7.13
2022-09-15T01:16:14.656Z,7.93
2022-09-15T01:18:51.277Z,7.47
2022-09-15T01:21:27.878Z,8.32
2022-09-15T01:24:32.558Z,8.07
2022-09-15T01:27:30.550Z,8.18
2022-09-15T01:30:07.597Z,8.60
2022-09-15T01:32:43.993Z,8.55
2022-09-15T01:35:21.884Z,9.25
2022-09-15T01:37:54.540Z,9.35
2022-09-15T01:40:24.617Z,9.13
2022-09-15T01:42:52.456Z,8.45
2022-09-15T01:45:25.237Z,9.77
2022-09-15T01:47:54.335Z,9.15
2022-09-15T01:50:23.400Z,8.73
2022-09-15T01:52:54.410Z,9.70
2022-09-15T01:55:26.493Z,8.98
2022-09-15T01:57:52.916Z,9.57
2022-09-15T02:00:21.179Z,10.18
2022-09-15T02:02:52.028Z,8.88
2022-09-15T02:05:23.008Z,10.07
2022-09-15T02:07:53.150Z,9.75
2022-09-15T02:10:25.961Z,9.43
2022-09-15T02:12:59.079Z,9.07
2022-09-15T02:15:31.665Z,9.68
2022-09-15T02:17:58.088Z,10.25
2022-09-15T02:20:30.031Z,10.65
2022-09-15T02:23:01.544Z,10.15
2022-09-15T02:25:33.393Z,10.35
2022-09-15T02:28:04.211Z,9.98
2022-09-15T02:30:33.016Z,10.07
2022-09-15T02:33:04.146Z,9.85
2022-09-15T02:35:32.674Z,10.18
2022-09-15T02:37:59.986Z,11.07
2022-09-15T02:40:28.426Z,10.25
2022-09-15T02:42:56.848Z,9.43
2022-09-15T02:45:24.574Z,9.52
2022-09-15T02:47:52.621Z,9.05
2022-09-15T02:50:19.978Z,9.25
2022-09-15T02:52:46.598Z,9.65
2022-09-15T02:55:12.970Z,10.05
2022-09-15T02:57:39.321Z,9.38
2022-09-15T03:00:07.167Z,8.75
2022-09-15T03:02:33.628Z,9.15
2022-09-15T03:05:01.321Z,9.45
2022-09-15T03:07:27.731Z,9.35
2022-09-15T03:09:54.148Z,9.07
2022-09-15T03:12:20.573Z,9.27
2022-09-15T03:14:46.933Z,8.88
2022-09-15T03:17:13.363Z,10.20
2022-09-15T03:19:39.719Z,9.90
2022-09-15T03:22:07.449Z,10.45
2022-09-15T03:24:33.831Z,10.77
2022-09-15T03:27:00.277Z,9.35
2022-09-15T03:29:26.949Z,9.13
2022-09-15T03:31:53.360Z,10.05
2022-09-15T03:34:19.811Z,9.70
2022-09-15T03:36:46.186Z,9.73
2022-09-15T03:39:13.972Z,9.70
2022-09-15T03:41:40.789Z,10.00
2022-09-15T03:44:07.142Z,8.73
2022-09-15T03:46:33.676Z,9.52
2022-09-15T03:49:00.008Z,9.52
2022-09-15T03:51:26.360Z,10.82
2022-09-15T03:53:52.838Z,11.57
2022-09-15T03:56:23.735Z,9.05
2022-09-15T03:58:50.803Z,9.45
2022-09-15T04:01:17.542Z,8.73
2022-09-15T04:03:50.122Z,9.10
2022-09-15T04:06:17.787Z,9.60
2022-09-15T04:08:44.577Z,9.13
2022-09-15T04:11:12.330Z,8.50
2022-09-15T04:13:41.404Z,8.73
2022-09-15T04:16:09.964Z,8.18
2022-09-15T04:18:36.742Z,8.55
2022-09-15T04:21:05.649Z,8.18
2022-09-15T04:23:32.924Z,8.35
2022-09-15T04:26:01.167Z,8.57
2022-09-15T04:28:29.186Z,7.78
2022-09-15T04:31:05.337Z,6.90
2022-09-15T04:33:32.156Z,7.20
2022-09-15T04:35:59.564Z,7.38
2022-09-15T04:38:25.976Z,7.25
2022-09-15T04:40:52.384Z,6.90
2022-09-15T04:43:18.737Z,5.75
2022-09-15T04:45:45.106Z,7.88
2022-09-15T04:48:12.843Z,7.93
2022-09-15T04:50:39.184Z,7.70
2022-09-15T04:53:05.534Z,7.72
2022-09-15T04:55:32.415Z,7.65
2022-09-15T04:57:58.817Z,6.53
2022-09-15T05:00:25.414Z,6.57
2022-09-15T05:02:51.796Z,8.07
2022-09-15T05:05:19.655Z,6.90
2022-09-15T05:07:47.218Z,6.63
2022-09-15T05:10:14.041Z,6.43
2022-09-15T05:12:40.387Z,6.13
2022-09-15T05:15:08.061Z,6.47
2022-09-15T05:17:34.808Z,6.55
2022-09-15T05:20:02.171Z,7.55
2022-09-15T05:22:29.826Z,6.43
2022-09-15T05:24:56.294Z,5.95
2022-09-15T05:27:22.845Z,6.80
2022-09-15T05:29:49.205Z,6.18
2022-09-15T05:32:15.554Z,7.22
2022-09-15T05:34:41.931Z,6.57
2022-09-15T05:37:08.272Z,5.95
2022-09-15T05:39:35.975Z,5.85
2022-09-15T05:42:02.322Z,6.45
2022-09-15T05:44:28.681Z,6.13
2022-09-15T05:46:55.196Z,6.07
2022-09-15T05:49:21.548Z,6.22
2022-09-15T05:51:47.878Z,6.05
2022-09-15T05:54:14.257Z,6.05
2022-09-15T05:56:41.918Z,5.65
2022-09-15T05:59:08.411Z,5.43
2022-09-15T06:01:34.806Z,6.10
2022-09-15T06:04:01.484Z,5.70
2022-09-15T06:06:27.892Z,5.57
2022-09-15T06:08:58.445Z,5.80
2022-09-15T06:11:27.742Z,5.50
2022-09-15T06:13:58.407Z,5.70
2022-09-15T06:16:25.027Z,5.43
2022-09-15T06:18:53.110Z,5.55
2022-09-15T06:21:22.345Z,5.13
2022-09-15T06:23:52.918Z,5.30
2022-09-15T06:26:19.407Z,4.25
2022-09-15T06:28:48.791Z,4.60
2022-09-15T06:31:17.035Z,4.78
2022-09-15T06:33:44.976Z,4.22
2022-09-15T06:36:11.825Z,4.85
2022-09-15T06:38:38.423Z,4.68
2022-09-15T06:41:05.850Z,4.38
2022-09-15T06:43:33.410Z,5.25
2022-09-15T06:46:04.918Z,5.43
2022-09-15T06:48:32.648Z,5.45
2022-09-15T06:50:59.758Z,5.32
2022-09-15T06:53:28.691Z,5.68
2022-09-15T06:55:55.228Z,4.75
2022-09-15T06:58:21.715Z,5.00
2022-09-15T07:00:48.075Z,4.43
2022-09-15T07:03:14.625Z,5.32
2022-09-15T07:05:43.385Z,4.78
2022-09-15T07:08:09.728Z,5.55
2022-09-15T07:10:36.261Z,5.88
2022-09-15T07:13:02.631Z,5.05
2022-09-15T07:15:29.169Z,5.60
2022-09-15T07:17:55.512Z,4.30
2022-09-15T07:20:21.944Z,4.53
2022-09-15T07:22:49.671Z,4.60
2022-09-15T07:25:16.231Z,5.45
2022-09-15T07:27:42.580Z,4.45
2022-09-15T07:30:09.974Z,4.03
2022-09-15T07:32:36.332Z,3.80
2022-09-15T07:35:03.891Z,3.70
2022-09-15T07:37:30.223Z,4.00
2022-09-15T07:39:57.955Z,3.70
2022-09-15T07:42:24.366Z,3.70
2022-09-15T07:44:50.800Z,3.72
2022-09-15T07:47:17.262Z,3.10
2022-09-15T07:49:43.740Z,3.80
2022-09-15T07:52:10.078Z,3.63
2022-09-15T07:54:36.468Z,3.17
2022-09-15T07:57:04.469Z,2.97
2022-09-15T07:59:30.832Z,3.08
2022-09-15T08:01:57.251Z,3.25
2022-09-15T08:04:23.815Z,3.20
2022-09-15T08:06:50.201Z,3.25
2022-09-15T08:09:16.535Z,2.67
2022-09-15T08:11:43.356Z,2.95
2022-09-15T08:14:11.042Z,4.20
2022-09-15T08:16:38.413Z,3.03
2022-09-15T08:19:05.103Z,2.63
2022-09-15T08:21:31.440Z,2.60
2022-09-15T08:23:59.767Z,2.80
2022-09-15T08:26:27.799Z,2.97
2022-09-15T08:28:54.312Z,2.90
2022-09-15T08:31:22.393Z,2.55
2022-09-15T08:33:50.315Z,3.38
2022-09-15T08:36:17.062Z,2.45
2022-09-15T08:38:45.268Z,3.25
2022-09-15T08:41:16.277Z,2.47
2022-09-15T08:43:47.913Z,2.67
2022-09-15T08:46:20.407Z,2.65
2022-09-15T08:48:59.585Z,2.83
2022-09-15T08:51:34.377Z,2.70
2022-09-15T08:54:05.482Z,2.53
2022-09-15T08:56:31.894Z,3.20
2022-09-15T08:58:58.404Z,2.70
2022-09-15T09:01:40.808Z,3.50
2022-09-15T09:04:31.963Z,2.67
2022-09-15T09:07:10.715Z,2.83
2022-09-15T09:09:44.911Z,2.70
2022-09-15T09:12:28.532Z,2.75
2022-09-15T09:15:07.663Z,2.65
2022-09-15T09:17:56.330Z,1.95
2022-09-15T09:20:43.180Z,2.53
2022-09-15T09:23:12.621Z,2.53
2022-09-15T09:25:40.603Z,2.60
2022-09-15T09:28:22.760Z,2.05
2022-09-15T09:30:49.250Z,2.03
2022-09-15T09:33:25.271Z,2.22
2022-09-15T09:35:53.128Z,2.45
2022-09-15T09:38:24.839Z,1.80
2022-09-15T09:40:51.703Z,2.08
2022-09-15T09:43:18.335Z,2.00
2022-09-15T09:45:44.803Z,1.52
2022-09-15T09:48:15.368Z,1.70
2022-09-15T09:50:42.616Z,2.00
2022-09-15T09:53:25.374Z,1.50
2022-09-15T09:55:52.464Z,1.58
2022-09-15T09:58:21.215Z,1.80
2022-09-15T10:00:48.572Z,1.35
2022-09-15T10:03:16.655Z,1.40
2022-09-15T10:05:45.050Z,2.40
2022-09-15T10:08:16.551Z,1.27
2022-09-15T10:10:52.540Z,1.80
2022-09-15T10:13:19.448Z,1.70
2022-09-15T10:15:51.564Z,1.88
2022-09-15T10:18:33.928Z,1.30
2022-09-15T10:21:02.586Z,0.95
2022-09-15T10:23:31.046Z,1.13
2022-09-15T10:26:20.213Z,2.40
2022-09-15T10:29:12.969Z,2.78
2022-09-15T10:31:40.520Z,1.13
2022-09-15T10:34:27.006Z,1.70
2022-09-15T10:36:58.578Z,1.48
2022-09-15T10:39:35.779Z,1.30
2022-09-15T10:42:12.952Z,1.50
2022-09-15T10:44:49.844Z,1.50
2022-09-15T10:47:27.405Z,1.40
2022-09-15T10:50:11.243Z,1.33
2022-09-15T10:52:51.770Z,1.38
2022-09-15T10:55:48.843Z,1.17
2022-09-15T10:58:30.180Z,1.35
2022-09-15T11:01:06.507Z,1.30
2022-09-15T11:04:06.220Z,1.33
2022-09-15T11:06:41.228Z,1.65
2022-09-15T11:09:16.832Z,1.20
2022-09-15T11:11:57.384Z,1.10
2022-09-15T11:14:53.659Z,1.75
2022-09-15T11:17:30.889Z,1.30
2022-09-15T11:20:20.716Z,1.45
2022-09-15T11:22:52.808Z,1.83
2022-09-15T11:25:22.825Z,1.40
2022-09-15T11:27:53.338Z,1.20
2022-09-15T11:30:23.729Z,1.80
2022-09-15T11:32:58.761Z,1.17
2022-09-15T11:35:33.268Z,1.35
2022-09-15T11:38:12.971Z,1.80
2022-09-15T11:40:46.120Z,1.80
2022-09-15T11:43:17.931Z,1.70
2022-09-15T11:45:50.361Z,1.52
2022-09-15T11:48:22.396Z,1.52
2022-09-15T11:50:53.357Z,0.95
2022-09-15T11:53:27.742Z,1.38
2022-09-15T11:56:00.960Z,1.25
2022-09-15T11:58:33.732Z,1.17
2022-09-15T12:01:06.987Z,1.50
2022-09-15T12:03:38.916Z,1.50
2022-09-15T12:06:09.709Z,2.15
2022-09-15T12:08:40.535Z,2.15
2022-09-15T12:11:11.701Z,1.33
2022-09-15T12:13:41.014Z,1.67
2022-09-15T12:16:09.735Z,1.63
2022-09-15T12:18:43.759Z,2.00
2022-09-15T12:21:17.149Z,1.80
2022-09-15T12:23:48.271Z,1.20
2022-09-15T12:26:17.666Z,1.30
2022-09-15T12:28:55.958Z,1.50
2022-09-15T12:31:44.808Z,1.20
2022-09-15T12:34:34.398Z,1.27
2022-09-15T12:37:08.507Z,1.45
2022-09-15T12:39:40.850Z,1.30
2022-09-15T12:42:14.044Z,0.98
2022-09-15T12:44:43.169Z,1.27
2022-09-15T12:47:20.677Z,0.90
2022-09-15T12:49:49.876Z,0.82
2022-09-15T12:52:19.008Z,0.77
2022-09-15T12:54:53.228Z,1.02
2022-09-15T12:57:24.439Z,0.82
2022-09-15T13:00:31.843Z,1.15
2022-09-15T13:03:00.352Z,1.13
2022-09-15T13:05:54.152Z,0.95
2022-09-15T13:08:44.249Z,0.77
2022-09-15T13:11:15.014Z,1.15
2022-09-15T13:13:45.561Z,0.88
2022-09-15T13:16:16.713Z,1.75
2022-09-15T13:18:46.841Z,0.93
2022-09-15T13:21:21.443Z,1.25
2022-09-15T13:23:51.644Z,1.08
2022-09-15T13:26:24.820Z,1.02
2022-09-15T13:28:55.683Z,0.60
2022-09-15T13:31:34.365Z,0.80
2022-09-15T13:40:52.238Z,0.75
2022-09-15T13:43:48.911Z,1.08
2022-09-15T13:46:27.787Z,0.90
2022-09-15T13:49:14.845Z,0.98
2022-09-15T13:51:46.950Z,0.98
2022-09-15T13:54:17.491Z,1.05
2022-09-15T13:56:44.303Z,0.90
2022-09-15T13:59:18.138Z,0.80
2022-09-15T14:01:45.426Z,0.80
2022-09-15T14:04:15.857Z,1.13
2022-09-15T14:06:45.689Z,1.25
2022-09-15T14:09:16.785Z,1.30
2022-09-15T14:11:47.222Z,1.10
2022-09-15T14:14:32.047Z,0.85
2022-09-15T14:17:00.988Z,1.20
2022-09-15T14:19:34.291Z,1.20
2022-09-15T14:22:02.187Z,1.08
2022-09-15T14:24:30.476Z,1.05
2022-09-15T14:27:00.184Z,1.40
2022-09-15T14:29:27.233Z,1.40
2022-09-15T14:31:59.026Z,0.88
2022-09-15T14:34:29.837Z,1.10
2022-09-15T14:37:02.322Z,1.20
2022-09-15T14:39:29.778Z,1.00
2022-09-15T14:41:56.668Z,1.38
2022-09-15T14:47:19.573Z,1.02
2022-09-15T14:49:46.044Z,0.80
2022-09-15T14:52:25.684Z,1.10
2022-09-15T14:54:57.527Z,1.25
2022-09-15T14:57:30.889Z,1.08
2022-09-15T15:00:01.285Z,1.13
2022-09-15T15:02:35.167Z,0.90
2022-09-15T15:05:07.942Z,1.00
2022-09-15T15:07:37.596Z,0.93
2022-09-15T15:10:07.298Z,0.85
2022-09-15T15:12:35.872Z,0.85
2022-09-15T15:15:03.161Z,1.15
2022-09-15T15:17:34.826Z,1.00
2022-09-15T15:20:12.295Z,1.08
2022-09-15T15:22:41.429Z,0.90
2022-09-15T15:25:22.560Z,1.15
2022-09-15T15:27:51.328Z,1.25
2022-09-15T15:30:45.685Z,0.90
2022-09-15T15:33:19.795Z,1.10
2022-09-15T15:35:46.995Z,1.00
2022-09-15T15:38:16.939Z,0.73
2022-09-15T15:40:44.715Z,0.80
2022-09-15T15:43:22.683Z,0.70
2022-09-15T15:45:51.133Z,0.90
2022-09-15T15:48:17.479Z,2.05
2022-09-15T15:50:43.844Z,1.20
2022-09-15T15:53:10.201Z,1.40
2022-09-15T15:55:40.359Z,0.80
2022-09-15T15:58:08.653Z,1.00
2022-09-15T16:00:38.602Z,0.80
2022-09-15T16:03:05.798Z,0.80
2022-09-15T16:05:33.542Z,0.60
2022-09-15T16:08:03.242Z,0.80
2022-09-15T16:10:38.334Z,1.13
2022-09-15T16:13:06.123Z,1.02
2022-09-15T16:15:32.557Z,0.70
2022-09-15T16:17:59.081Z,0.75
2022-09-15T16:20:25.432Z,1.20
2022-09-15T16:22:52.134Z,0.82
2022-09-15T16:25:27.008Z,0.80
2022-09-15T16:27:53.348Z,0.80
2022-09-15T16:30:21.454Z,0.98
2022-09-15T16:32:47.812Z,1.02
2022-09-15T16:35:24.110Z,0.88
2022-09-15T16:37:50.454Z,1.20
2022-09-15T16:40:16.960Z,1.27
2022-09-15T16:42:43.711Z,1.20
2022-09-15T16:45:18.753Z,1.42
2022-09-15T16:47:46.631Z,1.15
2022-09-15T16:50:13.036Z,1.25
2022-09-15T16:52:39.468Z,1.38
2022-09-15T16:55:18.855Z,1.60
2022-09-15T16:57:45.285Z,1.15
2022-09-15T17:00:13.303Z,1.50
2022-09-15T17:02:40.928Z,1.38
2022-09-15T17:05:16.151Z,1.20
2022-09-15T17:07:42.499Z,1.55
2022-09-15T17:10:09.182Z,1.05
2022-09-15T17:12:36.646Z,1.00
2022-09-15T17:15:17.786Z,0.93
2022-09-15T17:17:44.167Z,1.30
2022-09-15T17:20:11.947Z,1.13
2022-09-15T17:22:38.307Z,1.27
2022-09-15T17:25:17.971Z,1.38
2022-09-15T17:27:44.376Z,1.15
2022-09-15T17:30:12.465Z,1.35
2022-09-15T17:32:38.925Z,0.90
2022-09-15T17:35:15.432Z,0.80
2022-09-15T17:37:41.812Z,1.10
2022-09-15T17:40:08.996Z,1.00
2022-09-15T17:42:35.428Z,1.13
2022-09-15T17:45:02.069Z,0.90
2022-09-15T17:47:28.427Z,0.68
2022-09-15T17:49:54.759Z,1.42
2022-09-15T17:52:22.437Z,0.80
2022-09-15T17:54:48.849Z,1.33
2022-09-15T17:57:15.236Z,1.10
2022-09-15T17:59:41.621Z,1.20
2022-09-15T18:02:17.015Z,0.90
2022-09-15T18:04:43.406Z,1.00
2022-09-15T18:07:09.742Z,1.08
2022-09-15T18:09:37.462Z,0.75
2022-09-15T18:12:04.281Z,0.82
2022-09-15T18:14:30.737Z,0.98
2022-09-15T18:16:57.106Z,1.20
2022-09-15T18:19:23.484Z,1.10
2022-09-15T18:21:53.632Z,0.90
2022-09-15T18:24:19.990Z,1.10
2022-09-15T18:26:47.754Z,1.35
2022-09-15T18:29:14.145Z,1.33
2022-09-15T18:31:40.554Z,1.83
2022-09-15T18:34:06.915Z,1.50
2022-09-15T18:36:33.382Z,1.10
2022-09-15T18:38:59.815Z,1.90
2022-09-15T18:41:26.333Z,1.30
2022-09-15T18:43:54.159Z,1.40
2022-09-15T18:46:20.651Z,1.65
2022-09-15T18:48:47.258Z,1.92
2022-09-15T18:51:19.672Z,1.90
2022-09-15T18:53:53.987Z,1.33
2022-09-15T18:56:20.982Z,3.72
2022-09-15T18:58:47.344Z,2.22
2022-09-15T19:01:15.187Z,1.20
2022-09-15T19:03:43.849Z,1.50
2022-09-15T19:06:10.614Z,1.30
2022-09-15T19:08:37.046Z,1.20
2022-09-15T19:11:04.072Z,1.10
2022-09-15T19:13:30.470Z,1.35
2022-09-15T19:16:02.727Z,1.48
2022-09-15T19:18:30.427Z,1.40
2022-09-15T19:21:03.760Z,1.98
2022-09-15T19:23:30.124Z,1.25
2022-09-15T19:25:56.450Z,1.30
2022-09-15T19:28:22.977Z,1.20
2022-09-15T19:30:49.355Z,1.38
2022-09-15T19:33:15.805Z,1.08
2022-09-15T19:35:43.501Z,1.70
2022-09-15T19:38:09.861Z,1.30
2022-09-15T19:40:36.270Z,1.52
2022-09-15T19:43:02.739Z,1.52
2022-09-15T19:45:29.120Z,1.90
2022-09-15T19:47:55.465Z,1.70
2022-09-15T19:50:22.761Z,1.52
2022-09-15T19:52:50.450Z,1.20
2022-09-15T19:55:16.936Z,1.23
2022-09-15T19:57:43.398Z,1.65
2022-09-15T20:00:11.873Z,1.38
2022-09-15T20:02:38.651Z,1.40
2022-09-15T20:05:06.349Z,1.50
2022-09-15T20:07:33.225Z,1.30
2022-09-15T20:10:00.939Z,1.38
2022-09-15T20:12:27.312Z,1.20
2022-09-15T20:14:53.690Z,2.15
2022-09-15T20:17:20.136Z,2.22
2022-09-15T20:19:46.621Z,1.60
2022-09-15T20:22:13.246Z,1.50
2022-09-15T20:24:40.025Z,1.15
2022-09-15T20:27:07.880Z,1.38
2022-09-15T20:29:34.493Z,1.60
2022-09-15T20:32:00.968Z,1.10
2022-09-15T20:34:27.997Z,2.15
2022-09-15T20:36:54.321Z,1.27
2022-09-15T20:39:20.680Z,1.42
2022-09-15T20:41:47.052Z,1.60
2022-09-15T20:44:15.107Z,1.33
2022-09-15T20:46:42.206Z,1.90
2022-09-15T20:49:10.439Z,1.60
2022-09-15T20:51:36.832Z,1.55
2022-09-15T20:54:04.368Z,1.58
2022-09-15T20:56:32.595Z,1.52
2022-09-15T20:59:00.338Z,1.70
2022-09-15T21:01:29.429Z,1.95
2022-09-15T21:03:56.034Z,0.98
2022-09-15T21:06:23.791Z,1.63
2022-09-15T21:08:50.609Z,1.48
2022-09-15T21:11:19.351Z,1.10
2022-09-15T21:13:48.118Z,1.20
2022-09-15T21:16:16.184Z,1.67
2022-09-15T21:18:44.935Z,1.63
2022-09-15T21:21:14.356Z,1.10
2022-09-15T21:23:42.860Z,1.08
2022-09-15T21:26:11.354Z,1.30
2022-09-15T21:28:37.879Z,1.73
2022-09-15T21:31:06.046Z,1.77
2022-09-15T21:33:32.491Z,1.48
2022-09-15T21:36:04.847Z,1.15
2022-09-15T21:38:31.189Z,1.60
2022-09-15T21:40:57.694Z,1.30
2022-09-15T21:43:24.239Z,1.33
2022-09-15T21:45:54.675Z,1.58
2022-09-15T21:48:21.127Z,1.17
2022-09-15T21:50:49.804Z,1.20
2022-09-15T21:53:17.724Z,1.42
2022-09-15T21:55:44.060Z,1.55
2022-09-15T21:58:10.395Z,1.50
2022-09-15T22:00:36.811Z,1.52
2022-09-15T22:03:03.229Z,1.15
2022-09-15T22:05:29.572Z,1.50
2022-09-15T22:07:55.920Z,1.90
2022-09-15T22:10:23.624Z,1.42
2022-09-15T22:12:51.667Z,1.48
2022-09-15T22:15:18.530Z,1.77
2022-09-15T22:17:44.912Z,1.50
2022-09-15T22:20:11.305Z,1.40
2022-09-15T22:22:37.640Z,1.50
2022-09-15T22:25:04.523Z,1.50
2022-09-15T22:27:32.199Z,1.75
2022-09-15T22:29:58.552Z,1.60
2022-09-15T22:32:24.999Z,1.60
2022-09-15T22:34:51.361Z,1.98
2022-09-15T22:37:17.711Z,1.60
2022-09-15T22:39:58.387Z,1.50
2022-09-15T22:42:25.788Z,1.45
2022-09-15T22:44:53.750Z,1.45
2022-09-15T22:47:20.087Z,1.85
2022-09-15T22:49:46.465Z,1.35
2022-09-15T22:52:12.823Z,1.77
2022-09-15T22:54:39.191Z,1.40
2022-09-15T22:57:05.599Z,1.38
2022-09-15T22:59:31.951Z,1.63
2022-09-15T23:01:59.703Z,1.65
2022-09-15T23:04:26.340Z,1.30
2022-09-15T23:06:52.884Z,1.17
2022-09-15T23:09:19.232Z,1.38
2022-09-15T23:11:45.575Z,1.80
2022-09-15T23:14:13.843Z,1.08
2022-09-15T23:16:40.433Z,1.40
2022-09-15T23:19:08.232Z,1.13
2022-09-15T23:21:34.616Z,1.25
2022-09-15T23:24:01.377Z,1.02
2022-09-15T23:26:27.792Z,1.10
2022-09-15T23:28:54.731Z,1.38
2022-09-15T23:31:21.239Z,1.60
2022-09-15T23:33:47.719Z,1.20
2022-09-15T23:36:17.595Z,1.58
2022-09-15T23:38:45.319Z,1.27
2022-09-15T23:41:13.376Z,1.10
2022-09-15T23:43:39.820Z,1.35
2022-09-15T23:46:06.392Z,1.83
2022-09-15T23:48:32.888Z,1.15
2022-09-15T23:51:00.010Z,1.48
2022-09-15T23:53:28.133Z,1.08
2022-09-15T23:55:54.581Z,1.70
2022-09-15T23:58:20.996Z,1.05
